GLACIER NATIONAL PARK
GARDEN WALL WX STATION
SHOULOW 12/16/2017
CLICK HERE TO VIEW GRAPH!!!
All data is provisional.
Wind sensor is not heated. Riming can occur.
        DATE  TIME Temp F Wind Speed Wind Dir Wind Gust     BATT  % RH Press InHg
                                                                                  
                       AVG        AVG      AVG       MAX      AVG   AVG        AVG

  12/16/2017 19:00      11          0        0         0    12.30    85      29.88
  12/16/2017 18:00      11          0        0         0    12.30    85      29.89
  12/16/2017 17:00      12          0        0         0    12.31    85      29.89
  12/16/2017 16:00      12          0        0         0    12.32    86      29.88
  12/16/2017 15:00      13          0        0         0    12.33    86      29.88
  12/16/2017 14:00      14          0        0         0    12.34    86      29.88
  12/16/2017 13:00      14          0        0         0    12.34    86      29.88
  12/16/2017 12:00      14          0        0         0    12.34    86      29.90
  12/16/2017 11:00      13          0        0         0    12.34    86      29.89
  12/16/2017 10:00      13          0        0         0    12.33    86      29.88
  12/16/2017 09:00      14          0        0         0    12.33    86      29.87
  12/16/2017 08:00      14          0        0         0    12.34    87      29.85
  12/16/2017 07:00      15          0        0         0    12.34    87      29.85
  12/16/2017 06:00      15          0      208         2    12.35    87      29.84
  12/16/2017 05:00      16          1      182         2    12.35    87      29.83
  12/16/2017 04:00      16          1      188         4    12.35    87      29.83
  12/16/2017 03:00      16          2      180         3    12.36    87      29.82
  12/16/2017 02:00      16          2      158         3    12.36    88      29.81
  12/16/2017 01:00      17          1      168         3    12.36    88      29.81
  12/15/2017 24:00      17          1      161         5    12.36    88      29.82
  12/15/2017 23:00      17          1      177         4    12.37    88      29.83
  12/15/2017 22:00      17          3      165         7    12.38    88      29.82
  12/15/2017 21:00      17          3      176         7    12.38    88      29.82
  12/15/2017 20:00      17          3      122        10    12.38    88      29.82
  12/15/2017 19:00      18          3      135         6    12.39    88      29.82
  12/15/2017 18:00      18          4      155         9    12.39    88      29.82
  12/15/2017 17:00      18          6      165        15    12.41    88      29.81
  12/15/2017 16:00      18          9      159        15    12.45    88      29.81
  12/15/2017 15:00      19         10      157        17    12.49    88      29.80
  12/15/2017 14:00      19         10      170        23    12.51    89      29.82
  12/15/2017 13:00      19         16      163        35    12.51    88      29.83
  12/15/2017 12:00      19         13      170        30    12.49    88      29.84
  12/15/2017 11:00      19          9      184        22    12.46    89      29.87
  12/15/2017 10:00      19          9      159        24    12.44    89      29.90
  12/15/2017 09:00      19          8      155        20    12.41    88      29.90
  12/15/2017 08:00      19          7      128        20    12.42    89      29.89
  12/15/2017 07:00      18          9      141        22    12.42    89      29.92
  12/15/2017 06:00      18         11      138        28    12.43    90      29.94
  12/15/2017 05:00      19          9      155        24    12.43    90      29.96
  12/15/2017 04:00      19         12      172        24    12.44    88      30.00
  12/15/2017 03:00      19         10      148        24    12.44    84      30.02
  12/15/2017 02:00      20          8      144        15    12.45    77      30.03
  12/15/2017 01:00      21          9      138        18    12.46    75      30.04
  12/14/2017 24:00      20          9      143        19    12.47    81      30.07
  12/14/2017 23:00      18         10      141        24    12.48    88      30.07
  12/14/2017 22:00      19          7      134        13    12.49    83      30.08
  12/14/2017 21:00      18          8      135        17    12.50    87      30.10
  12/14/2017 20:00      18          7      138        14    12.52    86      30.12


CLICK HERE TO VIEW GRAPH!!!